Haskell, NJ (07420)

5:41 AM EST on February 09, 2016 (GMT -0500)
Greenwood Avenue | | Change Station
CLOSE
Current Station
Personal Weather Station
Location: Haskell, NJ
Elevation: 250 ft
Nearby Weather Stations
Active Advisory: Winter Weather Advisory

Elev 250 ft 41.02 °N, 74.30 °W | Updated 1 minute ago

Overcast
Overcast
25.3 °F
Feels Like 25 °F
N
1.0
Wind Variable Wind from ENE
Gusts 2.0 mph

Today
High -- | Low -- °F
--% Chance of Precip.
Yesterday
High -- | Low -- °F
Precip. -- in
Pressure 29.67 in
Visibility 10.0 miles
Clouds Overcast 1500 ft
Windchill 25 °F
Dew Point 22 °F
Humidity 86%
Rainfall 0.00 in
Snow Depth Not available.
6:59 AM 5:23 PM
New Moon, 1% visible
SPECI KCDW 091031Z AUTO 09006KT 10SM OVC015 M03/M07 A2967 RMK AO2 T10331067 TSNO
Pressure 29.67 in
Visibility 10.0 miles
Clouds Overcast 1500 ft
Windchill 25 °F
Dew Point 22 °F
Humidity 86%
Rainfall 0.00 in
Snow Depth Not available.
6:59 AM 5:23 PM
New Moon, 1% visible
SPECI KCDW 091031Z AUTO 09006KT 10SM OVC015 M03/M07 A2967 RMK AO2 T10331067 TSNO

10-Day Weather Forecast

Almanac

Astronomy

Feb. 09, 2016 Rise Set
Actual Time
Civil Twilight
Nautical Twilight
Astronomical Twilight
Moon
Length of Visible Light
Length of Day
Tomorrow will be .
, % of the Moon is Illuminated

Today's Extremes

State Highs State Lows

Community

WunderPhotos

Upload Photos

1,891,565 photos uploaded!

WunderBlog® & News

Nearby

Air Quality

  Air Quality AQ Index Pollutant
Not available.

Snow Depth

Station Depth Elevation

Earthquake Activity

City Distance Mag. Time & Date
Minimum magnitude displayed is 2.5.

Coastal Water Temperatures

Place Temperature

Stations

Nearby Weather Stations

Station Location Temp. Windchill Dew Point Humidity Wind Precip. Elev Updated Type
                   

Watches & Warnings

Winter Weather Advisory
Issued: 4:32 AM EST Feb. 9, 2016 – National Weather Service

... Winter Weather Advisory in effect from 6 PM this evening to
noon EST Wednesday...

The National Weather Service in Upton has issued a Winter Weather
Advisory for snow... which is in effect from 6 PM this evening to
noon EST Wednesday.

* Locations... northeast New Jersey along and north of Interstate
80... Rockland and Westchester counties in southeast New
York... and coastal Connecticut.

* Hazard types... snow.

* Accumulations... snow accumulation of 2 to 4 inches.

* Temperatures... in the upper 20s.

* Visibilities... one half mile at times.

Precautionary/preparedness actions...

A Winter Weather Advisory for snow means that periods of snow will
cause travel difficulties. Be prepared for slippery roads and
limited visibilities... and use caution while driving.



Goodman